Signal Hill, Illinois
Current Conditions -  °F | °C
As of 8:53 PM on Friday 21 Nov 2014 (Local Time) from KCPS Reporting Station
Light Rain Light Rain  
Wind Chill: 37°   Ceiling: 2000
Heat Index: 40°   Visibility: 7mi
Dew Point: 31°   Wind: 5mph
Humidity: 70%   Direction: 160°SSE
Pressure: 30.26"   Gusts: NA
Location:  38.5251°N, 90.0796°W
Report Text: KCPS 220253Z 16004KT 7SM -RA OVC020 04/M01 A3026 RMK AO2 RAB29 SLP251 P0001 60001 T00441006 58014
Loading
Personal Weather Stations






























Interactive Weather Map New forecast layout! Learn more

10-Day Weather Forecast

Advertisements
Track Severe Weather on mobile